Time;durP1;ratioP1;P1;durP2;ratioP2;P2;SDS_P1;SDS_P2;PMS_P1;PMS_P2;Temp;Humidity;BMP_temperature;BMP_pressure;BME280_temperature;BME280_humidity;BME280_pressure;Samples;Min_cycle;Max_cycle;Signal;HPM_P1;HPM_P2
2022/04/30 00:00:08;;;;;;;15.55;8.27;;;7.30;99.90;;;;;;5046400;28;20515;-70
2022/04/30 00:02:34;;;;;;;12.85;8.18;;;7.30;99.90;;;;;;5047409;28;20045;-69
2022/04/30 00:04:59;;;;;;;12.02;8.02;;;7.30;99.90;;;;;;5048385;28;20350;-69
2022/04/30 00:07:25;;;;;;;15.93;7.80;;;7.30;99.90;;;;;;5045558;28;20402;-69
2022/04/30 00:09:50;;;;;;;13.15;7.70;;;7.20;99.90;;;;;;5031327;28;20045;-70
2022/04/30 00:12:17;;;;;;;13.88;8.30;;;7.20;99.90;;;;;;5050581;28;20127;-70
2022/04/30 00:14:44;;;;;;;13.40;7.85;;;7.20;99.90;;;;;;5048856;28;20373;-70
2022/04/30 00:17:10;;;;;;;14.65;8.38;;;7.20;99.90;;;;;;5048345;28;20057;-70
2022/04/30 00:19:36;;;;;;;12.52;8.02;;;7.20;99.90;;;;;;5047585;28;20041;-70
2022/04/30 00:22:03;;;;;;;14.20;8.18;;;7.20;99.90;;;;;;5046975;28;20398;-70
2022/04/30 00:24:29;;;;;;;13.63;7.50;;;7.20;99.90;;;;;;5047003;28;20380;-70
2022/04/30 00:27:01;;;;;;;15.38;8.80;;;7.20;99.90;;;;;;5057701;28;20045;-69
2022/04/30 00:29:30;;;;;;;14.63;8.27;;;7.20;99.90;;;;;;5039871;28;20041;-71
2022/04/30 00:32:00;;;;;;;12.57;8.15;;;7.40;99.90;;;;;;5047158;28;20127;-70
2022/04/30 00:34:25;;;;;;;15.07;8.02;;;7.20;99.90;;;;;;5029868;28;20041;-71
2022/04/30 00:36:51;;;;;;;14.32;7.85;;;7.10;99.90;;;;;;5048304;28;20508;-70
2022/04/30 00:39:17;;;;;;;13.07;7.20;;;7.10;99.90;;;;;;5046864;28;20041;-69
2022/04/30 00:41:47;;;;;;;11.52;6.85;;;7.20;99.90;;;;;;5046785;28;20041;-69
2022/04/30 00:44:18;;;;;;;13.07;7.60;;;7.20;99.90;;;;;;5045228;28;20041;-69
2022/04/30 00:46:44;;;;;;;13.38;7.20;;;7.20;99.90;;;;;;5048499;28;20037;-69
2022/04/30 00:49:10;;;;;;;12.40;6.72;;;7.20;99.90;;;;;;5050389;28;20493;-68
2022/04/30 00:51:39;;;;;;;12.45;6.55;;;7.20;99.90;;;;;;5038138;28;20044;-69
2022/04/30 00:54:06;;;;;;;12.40;6.82;;;7.20;99.90;;;;;;5051170;28;20120;-70
2022/04/30 00:56:36;;;;;;;10.48;6.40;;;7.10;99.90;;;;;;5046221;28;20053;-69
2022/04/30 00:59:04;;;;;;;13.73;6.80;;;7.20;99.90;;;;;;5029151;28;20464;-69
2022/04/30 01:01:34;;;;;;;11.60;6.30;;;7.20;99.90;;;;;;5047425;28;20136;-71
2022/04/30 01:04:00;;;;;;;11.63;6.93;;;7.20;99.90;;;;;;5045975;28;20404;-68
2022/04/30 01:06:48;;;;;;;11.07;5.70;;;7.20;99.90;;;;;;5045558;28;20119;-69
2022/04/30 01:09:15;;;;;;;11.13;6.18;;;7.20;99.90;;;;;;5027530;28;20044;-69
2022/04/30 01:11:41;;;;;;;11.15;6.45;;;7.20;99.90;;;;;;5025353;28;20462;-69
2022/04/30 01:14:07;;;;;;;11.38;6.07;;;7.10;99.90;;;;;;5048720;28;20089;-69
2022/04/30 01:16:35;;;;;;;11.48;6.20;;;7.10;99.90;;;;;;5067667;28;20063;-69
2022/04/30 01:19:02;;;;;;;9.95;5.75;;;7.10;99.90;;;;;;5066616;28;20044;-69
2022/04/30 01:21:30;;;;;;;10.65;6.20;;;7.00;99.90;;;;;;5068152;28;20095;-69
2022/04/30 01:23:58;;;;;;;9.55;6.15;;;7.10;99.90;;;;;;5063539;28;20112;-69
2022/04/30 01:26:27;;;;;;;10.38;6.60;;;7.10;99.90;;;;;;5050832;28;20397;-69
2022/04/30 01:28:53;;;;;;;11.23;6.45;;;7.10;99.90;;;;;;5032168;28;20045;-69
2022/04/30 01:39:32;;;;;;;12.07;6.70;;;7.10;99.90;;;;;;5049680;28;20076;-69
2022/04/30 01:42:11;;;;;;;10.65;6.82;;;7.00;99.90;;;;;;5050727;28;20477;-69
2022/04/30 01:44:40;;;;;;;12.35;6.72;;;7.10;99.90;;;;;;5042289;28;20040;-69
2022/04/30 01:47:07;;;;;;;9.25;6.50;;;7.00;99.90;;;;;;5032939;28;20436;-69
2022/04/30 01:49:33;;;;;;;13.15;6.28;;;7.00;99.90;;;;;;5051054;28;20125;-69
2022/04/30 01:51:58;;;;;;;10.82;6.78;;;7.00;99.90;;;;;;5032600;28;20492;-69
2022/04/30 01:54:24;;;;;;;12.10;6.85;;;7.00;99.90;;;;;;5049106;28;20488;-69
2022/04/30 01:56:49;;;;;;;11.35;6.05;;;7.00;99.90;;;;;;5051800;28;20118;-69
2022/04/30 01:59:15;;;;;;;11.85;6.10;;;7.00;99.90;;;;;;5050391;28;20087;-69
2022/04/30 02:01:43;;;;;;;12.18;6.43;;;7.00;99.90;;;;;;5049955;28;20056;-69
2022/04/30 02:04:09;;;;;;;10.50;5.93;;;7.00;99.90;;;;;;5050775;28;20049;-69
2022/04/30 02:06:34;;;;;;;9.02;5.95;;;7.00;99.90;;;;;;5043642;28;20044;-69
2022/04/30 02:09:00;;;;;;;12.23;6.22;;;7.00;99.90;;;;;;5068952;28;20106;-69
2022/04/30 02:11:26;;;;;;;11.75;6.15;;;7.00;99.90;;;;;;5072196;28;20040;-69
2022/04/30 02:13:56;;;;;;;12.75;6.22;;;7.00;99.90;;;;;;5068466;28;20036;-69
2022/04/30 02:16:23;;;;;;;10.50;5.78;;;7.00;99.90;;;;;;5070226;28;20127;-69
2022/04/30 02:18:51;;;;;;;9.40;5.78;;;7.00;99.90;;;;;;5070434;28;20120;-69
2022/04/30 02:21:21;;;;;;;12.00;5.70;;;7.00;99.90;;;;;;5049662;28;20036;-69
2022/04/30 02:23:51;;;;;;;10.15;5.82;;;7.00;99.90;;;;;;5049407;28;20056;-69
2022/04/30 02:26:17;;;;;;;11.20;6.30;;;7.00;99.90;;;;;;5050285;28;20049;-69
2022/04/30 02:28:44;;;;;;;10.15;5.80;;;6.90;99.90;;;;;;5048962;28;20209;-69
2022/04/30 02:31:23;;;;;;;10.70;5.95;;;7.00;99.90;;;;;;5050055;28;20128;-69
2022/04/30 02:33:48;;;;;;;13.38;6.25;;;7.00;99.90;;;;;;5030996;28;20049;-69
2022/04/30 02:36:15;;;;;;;9.15;5.97;;;7.00;99.90;;;;;;5030956;28;20481;-69
2022/04/30 02:38:41;;;;;;;12.23;6.30;;;6.90;99.90;;;;;;5048287;28;20045;-69
2022/04/30 02:41:07;;;;;;;12.15;6.50;;;7.50;99.90;;;;;;5050547;28;20052;-69
2022/04/30 02:43:33;;;;;;;10.48;6.00;;;6.90;99.90;;;;;;5048219;28;20116;-69
2022/04/30 02:45:58;;;;;;;8.30;5.38;;;6.90;99.90;;;;;;5031248;28;20140;-69
2022/04/30 02:48:24;;;;;;;10.60;5.63;;;6.90;99.90;;;;;;5049745;28;20413;-69
2022/04/30 02:50:53;;;;;;;9.45;6.40;;;6.90;99.90;;;;;;5031095;28;20059;-69
2022/04/30 02:53:19;;;;;;;10.32;5.97;;;6.90;99.90;;;;;;5047348;28;20531;-69
2022/04/30 02:55:44;;;;;;;10.00;5.65;;;6.90;99.90;;;;;;5049432;28;20045;-69
2022/04/30 03:00:54;;;;;;;9.57;5.90;;;6.80;99.90;;;;;;5049850;28;20044;-69
2022/04/30 03:03:21;;;;;;;12.27;6.00;;;6.80;99.90;;;;;;5048870;28;20052;-69
2022/04/30 03:05:53;;;;;;;9.63;5.65;;;6.80;99.90;;;;;;5033908;28;20047;-68
2022/04/30 03:08:20;;;;;;;12.65;6.10;;;6.80;99.90;;;;;;5050696;28;20049;-69
2022/04/30 03:10:50;;;;;;;10.30;6.43;;;6.80;99.90;;;;;;5048720;28;20121;-69
2022/04/30 03:13:20;;;;;;;11.68;6.53;;;6.90;99.90;;;;;;5049009;28;20033;-69
2022/04/30 03:15:47;;;;;;;13.48;6.30;;;6.90;99.90;;;;;;5048102;28;20065;-69
2022/04/30 03:21:59;;;;;;;11.50;5.90;;;6.90;99.90;;;;;;5049142;28;20045;-69
2022/04/30 03:23:54;;;;;;;11.63;5.88;;;6.80;99.90;;;;;;5042992;28;20571;-69
2022/04/30 03:26:20;;;;;;;9.68;5.80;;;6.80;99.90;;;;;;5048509;28;20053;-69
2022/04/30 03:28:47;;;;;;;11.73;5.82;;;6.90;99.90;;;;;;5046220;28;20087;-69
2022/04/30 03:31:15;;;;;;;11.35;5.85;;;6.80;99.90;;;;;;5048343;28;20048;-70
2022/04/30 03:33:42;;;;;;;11.73;5.95;;;6.80;99.90;;;;;;5064507;28;20036;-69
2022/04/30 03:36:12;;;;;;;9.95;5.63;;;6.80;99.90;;;;;;5069148;28;20480;-68
2022/04/30 03:38:38;;;;;;;13.18;6.40;;;6.80;99.90;;;;;;5067078;28;20373;-68
2022/04/30 03:41:05;;;;;;;12.10;6.38;;;6.80;99.90;;;;;;5051625;28;20041;-68
2022/04/30 03:43:31;;;;;;;11.07;5.95;;;7.40;99.90;;;;;;5066294;28;20109;-68
2022/04/30 03:45:57;;;;;;;13.10;6.38;;;6.80;99.90;;;;;;5048877;28;20053;-68
2022/04/30 03:48:22;;;;;;;10.75;6.75;;;6.80;99.90;;;;;;5068045;28;20450;-68
2022/04/30 03:50:48;;;;;;;13.80;6.45;;;6.80;99.90;;;;;;5068497;28;20052;-68
2022/04/30 03:53:14;;;;;;;10.95;6.90;;;6.80;99.90;;;;;;5048977;28;20047;-68
2022/04/30 03:55:40;;;;;;;10.45;6.80;;;6.90;99.90;;;;;;5071246;28;20423;-68
2022/04/30 03:58:05;;;;;;;10.55;6.68;;;6.80;99.90;;;;;;5053749;28;20087;-68
2022/04/30 04:00:31;;;;;;;11.75;6.68;;;6.80;99.90;;;;;;5047141;28;20068;-68
2022/04/30 04:02:59;;;;;;;10.05;6.18;;;6.80;99.90;;;;;;5046567;28;20099;-68
2022/04/30 04:05:26;;;;;;;12.70;7.40;;;6.80;99.90;;;;;;5048839;28;20537;-69
2022/04/30 04:07:51;;;;;;;10.65;6.90;;;6.80;99.90;;;;;;5046307;28;20045;-68
2022/04/30 04:10:17;;;;;;;13.48;6.90;;;6.80;99.90;;;;;;5029158;28;20041;-68
2022/04/30 04:12:43;;;;;;;11.63;7.05;;;6.80;99.90;;;;;;5047625;28;20053;-68
2022/04/30 04:17:54;;;;;;;10.75;6.97;;;6.90;99.90;;;;;;5047389;28;20478;-69
2022/04/30 04:20:24;;;;;;;12.68;7.00;;;6.80;99.90;;;;;;5047739;28;20103;-68
2022/04/30 04:22:50;;;;;;;12.15;7.38;;;6.90;99.90;;;;;;5048563;28;20040;-67
2022/04/30 04:28:00;;;;;;;10.43;6.50;;;6.90;99.90;;;;;;5024673;28;20049;-67
2022/04/30 04:30:28;;;;;;;12.77;6.70;;;6.90;99.90;;;;;;5044744;28;20051;-67
2022/04/30 04:32:55;;;;;;;11.63;7.20;;;7.00;99.90;;;;;;5043148;28;20603;-67
2022/04/30 04:35:21;;;;;;;14.07;6.72;;;7.00;99.90;;;;;;5051681;28;20048;-67
2022/04/30 04:37:47;;;;;;;12.45;6.82;;;7.00;99.90;;;;;;5046410;28;20048;-67
2022/04/30 04:40:14;;;;;;;11.68;7.10;;;7.10;99.90;;;;;;5052509;28;20040;-67
2022/04/30 04:42:41;;;;;;;11.70;6.45;;;7.10;99.90;;;;;;5043621;28;20418;-67
2022/04/30 04:45:07;;;;;;;11.52;6.72;;;7.20;99.90;;;;;;5044437;28;20477;-67
2022/04/30 04:47:35;;;;;;;11.40;6.85;;;7.20;99.90;;;;;;5027621;28;20357;-67
2022/04/30 04:50:02;;;;;;;13.32;6.70;;;7.20;99.90;;;;;;5043463;28;20041;-67
2022/04/30 04:52:28;;;;;;;11.02;6.60;;;7.20;99.90;;;;;;5044200;28;20144;-67
2022/04/30 04:54:54;;;;;;;10.07;6.65;;;7.30;99.90;;;;;;5045820;28;20143;-67
2022/04/30 04:57:19;;;;;;;10.20;6.97;;;8.00;99.90;;;;;;5044260;28;20057;-67
2022/04/30 04:59:45;;;;;;;14.93;7.00;;;7.40;99.90;;;;;;5047455;28;20511;-67
2022/04/30 05:02:11;;;;;;;11.38;6.80;;;7.30;99.90;;;;;;5047709;28;20049;-67
2022/04/30 05:04:36;;;;;;;13.65;7.45;;;7.40;99.90;;;;;;5047457;28;20064;-67
2022/04/30 05:07:03;;;;;;;11.48;6.90;;;7.40;99.90;;;;;;5010718;28;20485;-67
2022/04/30 05:09:28;;;;;;;9.20;7.13;;;7.50;99.90;;;;;;5047322;28;20397;-67
2022/04/30 05:11:54;;;;;;;12.82;7.03;;;7.50;99.90;;;;;;5058454;28;20052;-67
2022/04/30 05:14:20;;;;;;;11.38;7.10;;;7.50;99.90;;;;;;5054951;28;20578;-67
2022/04/30 05:16:46;;;;;;;14.85;6.90;;;7.60;99.90;;;;;;5050168;28;20135;-67
2022/04/30 05:19:11;;;;;;;9.90;7.40;;;7.60;99.90;;;;;;5032604;28;20056;-67
2022/04/30 05:21:37;;;;;;;10.90;6.75;;;7.70;99.90;;;;;;5063668;28;20099;-67
2022/04/30 05:24:03;;;;;;;14.32;7.07;;;7.70;99.90;;;;;;5058098;28;20114;-67
2022/04/30 05:26:29;;;;;;;11.65;7.63;;;7.80;99.90;;;;;;5048951;28;20112;-67
2022/04/30 05:28:55;;;;;;;12.15;7.05;;;7.80;99.90;;;;;;5026942;28;20495;-67
2022/04/30 05:31:20;;;;;;;12.52;7.20;;;7.90;99.90;;;;;;5031888;28;20107;-67
2022/04/30 05:33:46;;;;;;;11.13;7.05;;;7.90;99.90;;;;;;5049264;28;20124;-67
2022/04/30 05:36:11;;;;;;;11.55;7.25;;;8.00;99.90;;;;;;5032945;28;20045;-67
2022/04/30 05:38:37;;;;;;;10.05;6.55;;;8.10;99.90;;;;;;5059198;28;20045;-67
2022/04/30 05:41:03;;;;;;;10.43;6.45;;;8.10;99.90;;;;;;5048119;28;20045;-67
2022/04/30 05:43:28;;;;;;;10.02;6.13;;;8.20;99.90;;;;;;5046179;28;20544;-67
2022/04/30 05:45:54;;;;;;;11.30;6.78;;;8.30;99.90;;;;;;5047281;28;20048;-67
2022/04/30 05:48:20;;;;;;;9.13;6.97;;;8.50;99.90;;;;;;5028987;28;20134;-67
2022/04/30 05:50:45;;;;;;;11.82;6.80;;;9.10;99.90;;;;;;5047947;28;20419;-68
2022/04/30 05:53:11;;;;;;;9.77;6.13;;;8.60;99.90;;;;;;5045206;28;20048;-67
2022/04/30 05:55:37;;;;;;;12.65;7.35;;;8.70;99.90;;;;;;5043016;28;20394;-68
2022/04/30 05:58:03;;;;;;;11.40;6.55;;;8.50;99.90;;;;;;5028295;28;20513;-68
2022/04/30 06:00:28;;;;;;;10.90;6.30;;;8.90;99.90;;;;;;5029307;28;20077;-67
2022/04/30 06:02:55;;;;;;;9.80;6.38;;;8.90;99.90;;;;;;5031820;28;20053;-67
2022/04/30 06:05:21;;;;;;;10.90;7.20;;;9.90;99.90;;;;;;5052913;28;20048;-67
2022/04/30 06:07:49;;;;;;;8.50;6.50;;;9.00;99.90;;;;;;5069008;28;20528;-67
2022/04/30 06:10:15;;;;;;;11.50;6.75;;;9.10;99.90;;;;;;5064913;28;20052;-67
2022/04/30 06:12:41;;;;;;;12.27;6.70;;;9.20;99.90;;;;;;5040392;28;20044;-67
2022/04/30 06:15:07;;;;;;;10.43;6.20;;;9.30;99.90;;;;;;5049368;28;20048;-67
2022/04/30 06:17:33;;;;;;;12.80;6.60;;;9.30;99.90;;;;;;5049512;28;20095;-67
2022/04/30 06:19:59;;;;;;;13.43;6.43;;;9.40;99.90;;;;;;5049362;28;20041;-67
2022/04/30 06:22:24;;;;;;;12.20;6.43;;;9.60;99.90;;;;;;5049716;28;20033;-67
2022/04/30 06:24:50;;;;;;;11.88;6.93;;;9.70;99.90;;;;;;5049157;28;20045;-67
2022/04/30 06:27:16;;;;;;;10.65;6.13;;;9.70;99.90;;;;;;5032537;28;20128;-67
2022/04/30 06:29:42;;;;;;;12.23;6.80;;;9.80;99.90;;;;;;5051256;28;20460;-67
2022/04/30 06:32:08;;;;;;;10.23;5.82;;;9.90;99.90;;;;;;5052365;28;20048;-67
2022/04/30 06:34:34;;;;;;;14.20;6.53;;;10.00;99.90;;;;;;5033304;28;20124;-66
2022/04/30 06:37:00;;;;;;;8.10;6.57;;;10.10;99.90;;;;;;5052294;28;20170;-66
2022/04/30 06:39:26;;;;;;;11.07;6.13;;;10.10;99.90;;;;;;5051357;28;20041;-66
2022/04/30 06:41:51;;;;;;;12.90;6.13;;;10.20;99.90;;;;;;5051292;28;20033;-67
2022/04/30 06:44:17;;;;;;;8.32;5.80;;;10.20;99.90;;;;;;5050160;28;20041;-66
2022/04/30 06:46:42;;;;;;;11.32;6.53;;;10.20;99.90;;;;;;5049595;28;20048;-67
2022/04/30 06:49:08;;;;;;;9.05;6.53;;;10.30;99.90;;;;;;5067199;28;20473;-66
2022/04/30 06:51:34;;;;;;;12.77;6.70;;;10.30;99.90;;;;;;5049564;28;20481;-66
2022/04/30 06:59:28;;;;;;;12.43;6.70;;;10.30;99.90;;;;;;5049108;28;20335;-68
2022/04/30 07:02:01;;;;;;;11.52;6.38;;;10.30;99.90;;;;;;5049789;28;20052;-68
2022/04/30 07:04:29;;;;;;;11.18;6.90;;;10.30;99.90;;;;;;5050388;28;20416;-68
2022/04/30 07:06:55;;;;;;;12.57;6.05;;;10.30;99.90;;;;;;5031280;28;20155;-67
2022/04/30 07:09:21;;;;;;;13.57;8.02;;;10.30;99.90;;;;;;5047982;28;20049;-67
2022/04/30 07:11:47;;;;;;;11.07;7.13;;;10.30;99.90;;;;;;5048991;28;20041;-67
2022/04/30 07:14:13;;;;;;;13.18;7.05;;;10.30;99.90;;;;;;5047493;28;20053;-67
2022/04/30 07:16:38;;;;;;;12.32;6.78;;;11.00;99.90;;;;;;5028888;28;20060;-67
2022/04/30 07:19:05;;;;;;;12.07;6.82;;;10.30;99.90;;;;;;5049033;28;20095;-67
2022/04/30 07:21:31;;;;;;;12.10;6.57;;;10.30;99.90;;;;;;5048057;28;20052;-67
2022/04/30 07:24:00;;;;;;;9.52;6.70;;;10.30;99.90;;;;;;5048196;28;20049;-68
2022/04/30 07:26:26;;;;;;;13.38;7.05;;;10.30;99.90;;;;;;5048232;28;20049;-68
2022/04/30 07:28:52;;;;;;;9.13;5.78;;;10.50;99.90;;;;;;5046958;28;20040;-67
2022/04/30 07:31:19;;;;;;;10.63;5.80;;;10.40;99.90;;;;;;5047755;28;20486;-68
2022/04/30 07:33:44;;;;;;;10.38;5.40;;;10.50;99.90;;;;;;5047854;28;20055;-68
2022/04/30 07:36:10;;;;;;;9.77;6.38;;;10.50;99.90;;;;;;5048175;28;20041;-67
2022/04/30 07:38:36;;;;;;;12.65;7.47;;;10.60;99.90;;;;;;5047454;28;20107;-68
2022/04/30 07:41:02;;;;;;;9.48;6.75;;;10.60;99.90;;;;;;5048367;28;20511;-67
2022/04/30 07:43:28;;;;;;;17.23;7.38;;;10.70;99.90;;;;;;5045731;28;20036;-68
2022/04/30 07:45:54;;;;;;;14.73;6.63;;;10.80;99.90;;;;;;5048239;28;20079;-67
2022/04/30 07:48:19;;;;;;;12.10;6.55;;;10.80;99.90;;;;;;5048388;28;20449;-68
2022/04/30 07:50:45;;;;;;;9.07;6.20;;;10.80;99.90;;;;;;5049468;28;20049;-67
2022/04/30 07:53:15;;;;;;;14.23;5.85;;;11.00;99.90;;;;;;5043345;28;20095;-68
2022/04/30 07:55:42;;;;;;;8.88;5.50;;;11.00;99.90;;;;;;5046241;28;20049;-67
2022/04/30 07:58:08;;;;;;;7.50;5.45;;;11.00;99.90;;;;;;5045401;28;20127;-68
2022/04/30 08:00:33;;;;;;;7.82;5.32;;;11.10;99.90;;;;;;5044599;28;20120;-68
2022/04/30 08:02:59;;;;;;;10.52;5.40;;;11.10;99.90;;;;;;5025841;28;20053;-68
2022/04/30 08:05:26;;;;;;;10.50;5.80;;;11.10;99.90;;;;;;5043406;28;20057;-68
2022/04/30 08:07:54;;;;;;;12.30;6.32;;;11.10;99.90;;;;;;5043381;28;20080;-67
2022/04/30 08:10:20;;;;;;;14.73;7.15;;;11.10;99.90;;;;;;5044445;28;20527;-68
2022/04/30 08:12:46;;;;;;;11.45;6.93;;;11.20;99.90;;;;;;5042692;28;20520;-67
2022/04/30 08:15:11;;;;;;;13.75;7.30;;;11.30;99.90;;;;;;5043698;28;20057;-67
2022/04/30 08:17:40;;;;;;;10.73;7.05;;;11.30;99.90;;;;;;5042825;28;20110;-67
2022/04/30 08:20:07;;;;;;;13.57;6.70;;;11.30;99.90;;;;;;5044706;28;20405;-67
2022/04/30 08:22:33;;;;;;;14.75;7.60;;;11.30;99.90;;;;;;5042961;28;20041;-67
2022/04/30 08:25:01;;;;;;;9.15;6.90;;;11.30;99.90;;;;;;5025145;28;20064;-67
2022/04/30 08:27:26;;;;;;;11.25;6.88;;;11.20;99.90;;;;;;5044684;28;20045;-67
2022/04/30 08:29:52;;;;;;;10.85;6.85;;;11.20;99.90;;;;;;5043242;28;20048;-68
2022/04/30 08:32:19;;;;;;;11.57;7.00;;;11.30;99.90;;;;;;5043552;28;20053;-68
2022/04/30 08:34:45;;;;;;;10.70;6.57;;;11.40;99.90;;;;;;5048020;28;20433;-67
2022/04/30 08:37:11;;;;;;;14.25;6.82;;;11.50;99.90;;;;;;5048357;28;20083;-67
2022/04/30 08:39:36;;;;;;;11.95;7.20;;;11.60;99.90;;;;;;5045486;28;20044;-68
2022/04/30 08:42:05;;;;;;;12.55;6.82;;;11.70;99.90;;;;;;5063057;28;20079;-68
2022/04/30 08:44:31;;;;;;;13.23;6.32;;;12.00;99.90;;;;;;5029768;28;20049;-67
2022/04/30 08:46:57;;;;;;;11.30;6.40;;;12.10;99.90;;;;;;5047595;28;20044;-67
2022/04/30 08:49:22;;;;;;;12.18;6.80;;;12.20;99.90;;;;;;5048170;28;20115;-67
2022/04/30 08:51:48;;;;;;;14.85;6.25;;;12.50;99.90;;;;;;5047899;28;20045;-67
2022/04/30 08:54:14;;;;;;;12.63;6.28;;;12.60;99.90;;;;;;5029153;28;20045;-67
2022/04/30 08:56:51;;;;;;;8.57;5.93;;;12.70;99.90;;;;;;5049227;28;20058;-67
2022/04/30 08:59:17;;;;;;;10.48;6.00;;;12.80;99.90;;;;;;5029960;28;20372;-67
2022/04/30 09:01:55;;;;;;;11.07;6.10;;;13.00;99.90;;;;;;5032325;28;20109;-68
2022/04/30 09:04:21;;;;;;;12.57;5.97;;;13.10;99.90;;;;;;5049414;28;20092;-67
2022/04/30 09:06:49;;;;;;;10.40;5.93;;;13.20;99.90;;;;;;5049445;28;20051;-67
2022/04/30 09:09:29;;;;;;;11.88;5.72;;;13.30;99.90;;;;;;5051797;28;20059;-67
2022/04/30 09:12:09;;;;;;;8.88;5.57;;;14.00;99.90;;;;;;5050156;28;20072;-67
2022/04/30 09:14:37;;;;;;;11.07;5.18;;;13.40;99.90;;;;;;5011318;28;20049;-67
2022/04/30 09:17:05;;;;;;;9.23;5.35;;;13.40;99.90;;;;;;5038236;28;20093;-67
2022/04/30 09:19:44;;;;;;;10.02;5.80;;;13.60;99.90;;;;;;5048131;28;20385;-67
2022/04/30 09:22:10;;;;;;;8.18;4.85;;;13.80;99.90;;;;;;5044703;28;20053;-67
2022/04/30 09:24:45;;;;;;;10.00;5.28;;;14.00;99.90;;;;;;5008813;28;20127;-66
2022/04/30 09:27:14;;;;;;;9.65;5.18;;;14.10;99.90;;;;;;5009848;28;20045;-67
2022/04/30 09:29:39;;;;;;;9.90;5.50;;;14.00;99.90;;;;;;5008362;28;20055;-67
2022/04/30 09:32:05;;;;;;;10.68;6.22;;;13.80;99.90;;;;;;5010637;28;20042;-67
2022/04/30 09:37:43;;;;;;;10.60;6.05;;;13.40;99.90;;;;;;5011742;28;20482;-67
2022/04/30 09:40:15;;;;;;;;;;;13.20;99.90;;;;;;5011574;28;20195;-67
2022/04/30 09:42:46;;;;;;;9.63;5.70;;;13.00;99.90;;;;;;5026437;28;20326;-67
2022/04/30 09:45:22;;;;;;;10.63;5.88;;;12.80;99.90;;;;;;5006702;28;20104;-67
2022/04/30 09:47:48;;;;;;;12.13;5.80;;;12.70;99.90;;;;;;5025699;28;20053;-67
2022/04/30 09:55:56;;;;;;;11.80;6.75;;;12.30;99.90;;;;;;5039374;28;20077;-67
2022/04/30 09:58:27;;;;;;;13.13;6.55;;;12.10;99.90;;;;;;5027271;28;20605;-67
2022/04/30 10:00:58;;;;;;;10.48;5.88;;;12.00;99.90;;;;;;5026727;28;20371;-67
2022/04/30 10:03:34;;;;;;;12.18;6.50;;;11.90;99.90;;;;;;5025299;28;20127;-68
2022/04/30 10:06:02;;;;;;;13.50;5.75;;;11.80;99.90;;;;;;5026891;28;20057;-67
2022/04/30 10:08:36;;;;;;;8.23;5.40;;;12.50;99.90;;;;;;5024666;28;20041;-67
2022/04/30 10:11:14;;;;;;;9.77;5.50;;;11.60;99.90;;;;;;5008110;28;20115;-67
2022/04/30 10:14:03;;;;;;;8.65;5.00;;;11.60;99.90;;;;;;5025917;28;20062;-67
2022/04/30 10:16:29;;;;;;;9.20;5.22;;;11.50;99.90;;;;;;5026881;28;20093;-68
2022/04/30 10:19:16;;;;;;;9.43;4.93;;;11.50;99.90;;;;;;5024642;28;20053;-68
2022/04/30 10:21:42;;;;;;;10.02;4.63;;;11.50;99.90;;;;;;5026560;28;20041;-68
2022/04/30 10:24:12;;;;;;;6.10;4.65;;;11.80;99.90;;;;;;5026299;28;20049;-68
2022/04/30 10:26:57;;;;;;;8.38;4.85;;;11.50;99.90;;;;;;5026003;28;20131;-68
2022/04/30 10:29:22;;;;;;;8.85;5.03;;;11.50;99.90;;;;;;5025260;28;20466;-68
2022/04/30 10:31:49;;;;;;;10.15;5.10;;;11.60;99.90;;;;;;5026687;28;20132;-68
2022/04/30 10:34:15;;;;;;;11.27;5.55;;;11.90;99.90;;;;;;5007676;28;20053;-68
2022/04/30 10:36:41;;;;;;;8.00;5.07;;;11.60;99.90;;;;;;5026471;28;20049;-67
2022/04/30 10:39:17;;;;;;;9.25;5.30;;;11.60;99.90;;;;;;5024477;28;20052;-67
2022/04/30 10:41:45;;;;;;;8.88;5.18;;;11.70;99.90;;;;;;5026706;28;20085;-68
2022/04/30 10:44:12;;;;;;;10.60;5.40;;;11.80;99.90;;;;;;5025540;28;20077;-67
2022/04/30 10:46:42;;;;;;;7.53;5.25;;;11.70;99.90;;;;;;5007615;28;20061;-67
2022/04/30 10:49:08;;;;;;;10.90;5.40;;;11.70;99.90;;;;;;5026488;28;20442;-67
2022/04/30 10:51:38;;;;;;;7.95;5.10;;;11.80;99.90;;;;;;5026344;28;20045;-68
2022/04/30 10:54:11;;;;;;;8.60;5.28;;;11.80;99.90;;;;;;5006444;28;20034;-68
2022/04/30 10:56:39;;;;;;;7.15;5.15;;;11.80;99.90;;;;;;5007379;28;20081;-68
2022/04/30 10:59:05;;;;;;;8.65;5.47;;;11.80;99.90;;;;;;5006883;28;20072;-68
2022/04/30 11:01:31;;;;;;;11.63;5.00;;;11.90;99.90;;;;;;5023250;28;20731;-67
2022/04/30 11:03:57;;;;;;;7.10;4.50;;;11.90;99.90;;;;;;5024480;28;20813;-68
2022/04/30 11:06:25;;;;;;;9.05;5.10;;;12.00;99.90;;;;;;5007895;28;20521;-68
2022/04/30 11:09:02;;;;;;;7.75;4.95;;;12.10;99.90;;;;;;5024408;28;20049;-68
2022/04/30 11:11:29;;;;;;;9.05;5.25;;;12.20;99.90;;;;;;5024950;28;20541;-68
2022/04/30 11:13:58;;;;;;;10.77;5.97;;;12.30;99.90;;;;;;5005219;28;20053;-69
2022/04/30 11:16:29;;;;;;;8.27;5.18;;;13.50;99.90;;;;;;5038301;28;20065;-68
2022/04/30 11:19:04;;;;;;;10.95;5.63;;;12.30;99.90;;;;;;5045602;28;20135;-68
2022/04/30 11:21:34;;;;;;;8.23;5.63;;;12.90;99.90;;;;;;5044155;28;20063;-68
2022/04/30 11:24:01;;;;;;;9.90;5.57;;;12.40;99.90;;;;;;5022833;28;20048;-68
2022/04/30 11:26:27;;;;;;;11.85;5.50;;;12.40;99.90;;;;;;5011428;28;20091;-68
2022/04/30 11:28:53;;;;;;;9.35;5.25;;;12.40;99.90;;;;;;5026963;28;20541;-68
2022/04/30 11:31:22;;;;;;;11.07;5.95;;;12.40;99.90;;;;;;5028108;28;20184;-67
2022/04/30 11:33:48;;;;;;;10.45;5.70;;;12.80;99.90;;;;;;5027677;28;20048;-67
2022/04/30 11:36:14;;;;;;;9.95;5.10;;;12.40;99.90;;;;;;5029473;28;20107;-67
2022/04/30 11:38:48;;;;;;;12.70;5.07;;;12.40;99.90;;;;;;5047256;28;20144;-68
2022/04/30 11:41:14;;;;;;;10.10;5.30;;;12.40;99.90;;;;;;5048090;28;20049;-66
2022/04/30 11:43:39;;;;;;;9.80;5.65;;;12.90;99.90;;;;;;5045087;28;20041;-67
2022/04/30 11:46:05;;;;;;;8.50;5.50;;;12.60;99.90;;;;;;5044628;28;20068;-67
2022/04/30 11:48:39;;;;;;;9.57;5.50;;;12.40;99.90;;;;;;5042632;28;21058;-67
2022/04/30 11:51:06;;;;;;;10.48;5.95;;;12.40;99.90;;;;;;5028460;28;20053;-67
2022/04/30 11:53:33;;;;;;;10.85;5.45;;;12.40;99.90;;;;;;5037921;28;20044;-67
2022/04/30 11:55:59;;;;;;;8.15;5.68;;;12.40;99.90;;;;;;5045368;28;20581;-67
2022/04/30 11:58:25;;;;;;;7.68;5.15;;;12.40;99.90;;;;;;5047040;28;20117;-68
2022/04/30 12:00:54;;;;;;;9.57;4.78;;;13.60;99.90;;;;;;5047537;28;20114;-67
2022/04/30 12:03:28;;;;;;;8.88;4.60;;;12.50;99.90;;;;;;5026830;28;20053;-66
2022/04/30 12:05:56;;;;;;;7.88;5.32;;;12.60;99.90;;;;;;5028091;28;20045;-66
2022/04/30 12:08:28;;;;;;;9.48;5.47;;;12.60;99.90;;;;;;5026268;28;20124;-67
2022/04/30 12:10:55;;;;;;;13.20;5.00;;;12.60;99.90;;;;;;5029220;28;20088;-68
2022/04/30 12:13:27;;;;;;;6.00;4.40;;;12.70;99.90;;;;;;5025941;28;20057;-67
2022/04/30 12:16:05;;;;;;;6.53;4.28;;;12.70;99.90;;;;;;5029811;28;20111;-67
2022/04/30 12:27:02;;;;;;;8.10;5.07;;;13.10;99.90;;;;;;5048786;28;20401;-68
2022/04/30 12:29:30;;;;;;;6.25;4.97;;;13.60;99.90;;;;;;5047026;28;20037;-68
2022/04/30 12:31:56;;;;;;;10.48;5.40;;;13.20;99.90;;;;;;5046805;28;20446;-68
2022/04/30 12:34:27;;;;;;;8.05;5.25;;;13.30;99.90;;;;;;5029274;28;20052;-68
2022/04/30 12:36:59;;;;;;;8.90;5.97;;;13.30;99.90;;;;;;5029392;28;20044;-68
2022/04/30 12:39:25;;;;;;;8.52;5.50;;;13.80;99.90;;;;;;5051164;28;20049;-68
2022/04/30 12:41:52;;;;;;;9.02;6.15;;;13.40;99.90;;;;;;5047979;28;20443;-67
2022/04/30 12:44:18;;;;;;;11.63;5.70;;;13.40;99.90;;;;;;5042552;28;20319;-68
2022/04/30 12:46:45;;;;;;;8.10;5.10;;;13.30;99.90;;;;;;5042952;28;20060;-68
2022/04/30 12:49:12;;;;;;;8.73;5.47;;;13.40;99.90;;;;;;5044094;28;20467;-67
2022/04/30 12:51:39;;;;;;;7.45;5.25;;;13.90;99.90;;;;;;5025882;28;20057;-67
2022/04/30 12:54:10;;;;;;;8.73;5.13;;;13.20;99.90;;;;;;5041911;28;20049;-67
2022/04/30 12:56:36;;;;;;;9.60;5.03;;;13.10;99.90;;;;;;5043932;28;20041;-67
2022/04/30 12:59:01;;;;;;;9.23;5.20;;;13.20;99.90;;;;;;5042773;28;20033;-67
2022/04/30 13:01:28;;;;;;;8.57;5.15;;;13.40;99.90;;;;;;5042526;28;20041;-67
2022/04/30 13:03:55;;;;;;;8.70;4.60;;;13.20;99.90;;;;;;5044036;28;20417;-67
2022/04/30 13:06:22;;;;;;;10.18;4.80;;;13.20;99.90;;;;;;5042200;28;20045;-68
2022/04/30 13:14:16;;;;;;;8.48;4.80;;;13.20;99.90;;;;;;5045206;28;20056;-67
2022/04/30 13:16:42;;;;;;;8.82;4.88;;;13.10;99.90;;;;;;5045438;28;20105;-67
2022/04/30 13:19:08;;;;;;;8.32;5.03;;;13.00;99.90;;;;;;5045506;28;20057;-67
2022/04/30 13:21:34;;;;;;;7.00;4.32;;;12.90;99.90;;;;;;5046515;28;20064;-66
2022/04/30 13:24:00;;;;;;;6.53;4.70;;;12.80;99.90;;;;;;5045858;28;20045;-67
2022/04/30 13:26:26;;;;;;;9.15;4.70;;;12.80;99.90;;;;;;5029566;28;20587;-67
2022/04/30 13:28:52;;;;;;;8.48;4.80;;;12.80;99.90;;;;;;5045819;28;20097;-67
2022/04/30 13:31:17;;;;;;;7.82;4.32;;;12.60;99.90;;;;;;5046928;28;20475;-67
2022/04/30 13:33:43;;;;;;;7.18;4.25;;;13.00;99.90;;;;;;5046552;28;20041;-67